Time,TemperatureF,DewpointF,PressureIn,WindDirection,WindDirectionDegrees,WindSpeedMPH,WindSpeedGustMPH,Humidity,HourlyPrecipIn,Conditions,Clouds,dailyrainin,SoftwareType,DateUTC
2013-03-07 00:03:00,18.9,14.7,30.31,SSE,156,4.0,8.3,83,0.00,,,0.00,CWS Microserver 1.4,2013-03-07 06:03:00,
2013-03-07 00:08:00,18.7,14.5,30.31,SE,146,5.0,8.3,83,0.00,,,0.00,CWS Microserver 1.4,2013-03-07 06:08:00,
2013-03-07 00:13:00,18.7,14.6,30.31,SSE,154,3.4,7.4,83,0.00,,,0.00,CWS Microserver 1.4,2013-03-07 06:13:00,
2013-03-07 00:18:00,18.5,14.4,30.31,SSW,195,3.7,8.9,83,0.00,,,0.00,CWS Microserver 1.4,2013-03-07 06:18:00,
2013-03-07 00:23:00,18.5,14.4,30.31,SE,131,3.7,9.3,83,0.00,,,0.00,CWS Microserver 1.4,2013-03-07 06:23:00,
2013-03-07 00:28:00,18.5,14.4,30.31,SSE,148,5.1,9.3,83,0.00,,,0.00,CWS Microserver 1.4,2013-03-07 06:28:00,
2013-03-07 00:33:00,18.5,14.6,30.31,SE,144,4.3,7.7,84,0.00,,,0.00,CWS Microserver 1.4,2013-03-07 06:33:00,
2013-03-07 00:38:00,18.5,14.5,30.31,SSE,153,7.1,9.7,84,0.00,,,0.00,CWS Microserver 1.4,2013-03-07 06:38:00,
2013-03-07 00:43:00,18.4,14.4,30.30,SE,136,6.0,9.7,84,0.00,,,0.00,CWS Microserver 1.4,2013-03-07 06:43:00,
2013-03-07 00:48:00,18.2,14.3,30.30,SE,129,5.0,8.9,84,0.00,,,0.00,CWS Microserver 1.4,2013-03-07 06:48:00,
2013-03-07 00:53:00,18.2,14.4,30.29,SSE,148,7.0,8.9,84,0.00,,,0.00,CWS Microserver 1.4,2013-03-07 06:53:00,
2013-03-07 00:58:00,18.0,14.2,30.29,SE,140,7.2,11.2,84,0.00,,,0.00,CWS Microserver 1.4,2013-03-07 06:58:00,
2013-03-07 01:03:00,17.8,14.1,30.29,SE,130,10.5,11.2,85,0.00,,,0.00,CWS Microserver 1.4,2013-03-07 07:03:00,
2013-03-07 01:08:00,17.6,13.9,30.29,SE,131,10.4,11.7,85,0.00,,,0.00,CWS Microserver 1.4,2013-03-07 07:08:00,
2013-03-07 01:13:00,17.6,14.0,30.29,SSE,153,7.6,13.3,85,0.00,,,0.00,CWS Microserver 1.4,2013-03-07 07:13:00,
2013-03-07 01:18:00,17.5,14.0,30.29,SSE,156,10.9,13.3,85,0.00,,,0.00,CWS Microserver 1.4,2013-03-07 07:18:00,
2013-03-07 01:23:00,17.5,14.0,30.29,SSE,153,10.5,12.0,85,0.00,,,0.00,CWS Microserver 1.4,2013-03-07 07:23:00,
2013-03-07 01:28:00,17.3,13.8,30.29,SSE,149,8.0,12.0,85,0.00,,,0.00,CWS Microserver 1.4,2013-03-07 07:28:00,
2013-03-07 01:33:00,17.1,13.7,30.29,SE,145,4.3,11.2,86,0.00,,,0.00,CWS Microserver 1.4,2013-03-07 07:33:00,
2013-03-07 01:38:00,17.1,13.7,30.29,SE,145,6.6,10.2,86,0.00,,,0.00,CWS Microserver 1.4,2013-03-07 07:38:00,
2013-03-07 01:48:00,16.9,13.5,30.29,SE,126,6.5,10.7,86,0.00,,,0.00,CWS Microserver 1.4,2013-03-07 07:48:00,
2013-03-07 01:53:00,16.7,13.4,30.29,SSE,156,7.2,10.5,86,0.00,,,0.00,CWS Microserver 1.4,2013-03-07 07:53:00,
2013-03-07 02:03:00,16.2,12.8,30.30,SSE,155,7.2,9.9,86,0.00,,,0.00,CWS Microserver 1.4,2013-03-07 08:03:00,
2013-03-07 02:08:00,16.0,12.7,30.30,SSE,152,5.8,9.9,86,0.00,,,0.00,CWS Microserver 1.4,2013-03-07 08:08:00,
2013-03-07 02:18:00,15.7,12.3,30.30,SSE,152,5.2,8.0,86,0.00,,,0.00,CWS Microserver 1.4,2013-03-07 08:18:00,
2013-03-07 02:23:00,15.3,12.3,30.30,SSE,159,6.1,7.9,87,0.00,,,0.00,CWS Microserver 1.4,2013-03-07 08:23:00,
2013-03-07 02:28:00,15.3,12.4,30.30,SE,146,5.6,7.1,88,0.00,,,0.00,CWS Microserver 1.4,2013-03-07 08:28:00,
2013-03-07 02:38:00,14.8,11.4,30.30,SE,132,4.4,6.5,86,0.00,,,0.00,CWS Microserver 1.4,2013-03-07 08:38:00,
2013-03-07 02:43:00,14.2,11.5,30.29,SSE,150,5.3,6.0,88,0.00,,,0.00,CWS Microserver 1.4,2013-03-07 08:43:00,
2013-03-07 02:48:00,14.4,12.0,30.29,SE,143,4.9,6.0,89,0.00,,,0.00,CWS Microserver 1.4,2013-03-07 08:48:00,
2013-03-07 02:58:00,14.8,11.8,30.29,SE,141,3.7,6.8,87,0.00,,,0.00,CWS Microserver 1.4,2013-03-07 08:58:00,
2013-03-07 03:03:00,14.2,11.4,30.29,SSE,150,4.9,6.8,88,0.00,,,0.00,CWS Microserver 1.4,2013-03-07 09:03:00,
2013-03-07 03:08:00,13.9,11.5,30.29,SE,145,5.4,6.1,90,0.00,,,0.00,CWS Microserver 1.4,2013-03-07 09:08:00,
2013-03-07 03:13:00,14.2,11.9,30.29,SE,140,4.8,6.0,90,0.00,,,0.00,CWS Microserver 1.4,2013-03-07 09:13:00,
2013-03-07 03:18:00,14.2,11.6,30.29,SSE,155,6.3,7.1,89,0.00,,,0.00,CWS Microserver 1.4,2013-03-07 09:18:00,
2013-03-07 03:23:00,13.9,11.4,30.28,SE,139,4.9,7.1,89,0.00,,,0.00,CWS Microserver 1.4,2013-03-07 09:23:00,
2013-03-07 03:28:00,14.2,11.9,30.28,SSE,147,4.4,6.4,90,0.00,,,0.00,CWS Microserver 1.4,2013-03-07 09:28:00,
2013-03-07 03:38:00,14.0,11.5,30.29,SE,140,5.9,6.1,89,0.00,,,0.00,CWS Microserver 1.4,2013-03-07 09:38:00,
2013-03-07 03:48:00,13.5,11.1,30.29,SE,145,6.5,7.6,89,0.00,,,0.00,CWS Microserver 1.4,2013-03-07 09:48:00,
2013-03-07 03:53:00,12.4,9.8,30.29,SE,146,5.9,7.6,89,0.00,,,0.00,CWS Microserver 1.4,2013-03-07 09:53:00,
2013-03-07 03:58:00,11.9,9.4,30.28,SE,143,6.3,7.1,89,0.00,,,0.00,CWS Microserver 1.4,2013-03-07 09:58:00,
2013-03-07 04:03:00,12.1,9.9,30.29,SSE,154,4.8,7.6,90,0.00,,,0.00,CWS Microserver 1.4,2013-03-07 10:03:00,
2013-03-07 04:08:00,11.9,9.6,30.29,SSE,148,5.3,7.6,90,0.00,,,0.00,CWS Microserver 1.4,2013-03-07 10:08:00,
2013-03-07 04:13:00,11.9,9.7,30.29,SE,140,5.5,6.4,90,0.00,,,0.00,CWS Microserver 1.4,2013-03-07 10:13:00,
2013-03-07 04:18:00,11.9,9.7,30.29,SE,141,5.2,6.5,90,0.00,,,0.00,CWS Microserver 1.4,2013-03-07 10:18:00,
2013-03-07 04:28:00,11.9,9.5,30.29,SE,130,3.0,6.3,90,0.00,,,0.00,CWS Microserver 1.4,2013-03-07 10:28:00,
2013-03-07 04:33:00,12.1,9.9,30.29,SE,145,3.7,5.3,90,0.00,,,0.00,CWS Microserver 1.4,2013-03-07 10:33:00,
2013-03-07 04:38:00,11.9,9.5,30.29,SSE,154,3.8,5.3,89,0.00,,,0.00,CWS Microserver 1.4,2013-03-07 10:38:00,
2013-03-07 04:43:00,12.1,9.9,30.29,SE,143,3.7,5.1,90,0.00,,,0.00,CWS Microserver 1.4,2013-03-07 10:43:00,
2013-03-07 04:48:00,11.9,9.5,30.29,SSE,159,3.9,5.4,90,0.00,,,0.00,CWS Microserver 1.4,2013-03-07 10:48:00,
2013-03-07 04:53:00,12.1,9.8,30.29,SSE,166,3.9,5.7,90,0.00,,,0.00,CWS Microserver 1.4,2013-03-07 10:53:00,
2013-03-07 04:58:00,11.9,9.7,30.29,SSE,158,3.6,5.7,90,0.00,,,0.00,CWS Microserver 1.4,2013-03-07 10:58:00,
2013-03-07 05:03:00,11.9,9.7,30.29,SSE,151,4.4,5.1,90,0.00,,,0.00,CWS Microserver 1.4,2013-03-07 11:03:00,
2013-03-07 05:08:00,12.1,9.9,30.29,SSE,155,4.6,5.6,90,0.00,,,0.00,CWS Microserver 1.4,2013-03-07 11:08:00,
2013-03-07 05:13:00,12.1,9.8,30.29,SE,141,4.5,6.1,90,0.00,,,0.00,CWS Microserver 1.4,2013-03-07 11:13:00,
2013-03-07 05:18:00,11.7,9.2,30.29,SSE,150,4.5,6.1,89,0.00,,,0.00,CWS Microserver 1.4,2013-03-07 11:18:00,
2013-03-07 05:23:00,11.5,9.1,30.29,SSE,147,4.4,5.9,90,0.00,,,0.00,CWS Microserver 1.4,2013-03-07 11:23:00,
2013-03-07 05:33:00,11.7,9.2,30.29,SSE,150,3.4,5.8,89,0.00,,,0.00,CWS Microserver 1.4,2013-03-07 11:33:00,
2013-03-07 05:38:00,11.5,9.0,30.29,SSE,153,2.9,5.8,89,0.00,,,0.00,CWS Microserver 1.4,2013-03-07 11:38:00,
2013-03-07 05:43:00,11.3,8.8,30.29,SSE,155,4.3,5.6,89,0.00,,,0.00,CWS Microserver 1.4,2013-03-07 11:43:00,
2013-03-07 05:48:00,10.8,8.0,30.29,SSE,158,3.8,4.8,88,0.00,,,0.00,CWS Microserver 1.4,2013-03-07 11:48:00,
2013-03-07 05:53:00,10.3,7.4,30.30,SSE,159,3.6,4.6,87,0.00,,,0.00,CWS Microserver 1.4,2013-03-07 11:53:00,
2013-03-07 05:58:00,10.3,7.5,30.30,SSE,163,3.7,4.6,88,0.00,,,0.00,CWS Microserver 1.4,2013-03-07 11:58:00,
2013-03-07 06:03:00,10.4,7.6,30.29,SSE,150,3.8,4.5,88,0.00,,,0.00,CWS Microserver 1.4,2013-03-07 12:03:00,
2013-03-07 06:08:00,9.9,7.0,30.29,SE,143,4.2,4.8,87,0.00,,,0.00,CWS Microserver 1.4,2013-03-07 12:08:00,
2013-03-07 06:13:00,9.5,6.5,30.30,SSE,155,3.7,4.9,87,0.00,,,0.00,CWS Microserver 1.4,2013-03-07 12:13:00,
2013-03-07 06:18:00,9.5,6.5,30.30,SSE,148,2.6,4.9,87,0.00,,,0.00,CWS Microserver 1.4,2013-03-07 12:18:00,
2013-03-07 06:23:00,9.4,6.4,30.29,SSE,148,3.7,4.4,87,0.00,,,0.00,CWS Microserver 1.4,2013-03-07 12:23:00,
2013-03-07 06:28:00,9.5,6.4,30.29,SE,144,3.1,4.6,87,0.00,,,0.00,CWS Microserver 1.4,2013-03-07 12:28:00,
2013-03-07 06:33:00,9.2,6.1,30.29,SSE,156,3.9,4.6,86,0.00,,,0.00,CWS Microserver 1.4,2013-03-07 12:33:00,
2013-03-07 06:38:00,9.2,6.1,30.29,South,169,4.2,5.6,86,0.00,,,0.00,CWS Microserver 1.4,2013-03-07 12:38:00,
2013-03-07 06:43:00,9.2,6.1,30.29,SSE,168,4.8,6.2,87,0.00,,,0.00,CWS Microserver 1.4,2013-03-07 12:43:00,
2013-03-07 06:48:00,9.2,6.0,30.29,ESE,109,4.9,6.2,86,0.00,,,0.00,CWS Microserver 1.4,2013-03-07 12:48:00,
2013-03-07 06:53:00,9.0,5.7,30.29,SSE,152,3.5,5.5,86,0.00,,,0.00,CWS Microserver 1.4,2013-03-07 12:53:00,
2013-03-07 06:58:00,9.0,5.7,30.28,ESE,104,4.3,5.5,86,0.00,,,0.00,CWS Microserver 1.4,2013-03-07 12:58:00,
2013-03-07 07:03:00,8.8,5.5,30.28,ESE,107,5.2,5.2,86,0.00,,,0.00,CWS Microserver 1.4,2013-03-07 13:03:00,
2013-03-07 07:08:00,8.6,5.2,30.28,ESE,114,3.0,5.3,85,0.00,,,0.00,CWS Microserver 1.4,2013-03-07 13:08:00,
2013-03-07 07:13:00,9.0,5.7,30.29,SSE,160,3.3,5.9,86,0.00,,,0.00,CWS Microserver 1.4,2013-03-07 13:13:00,
2013-03-07 07:18:00,9.0,5.7,30.29,South,179,3.6,5.9,86,0.00,,,0.00,CWS Microserver 1.4,2013-03-07 13:18:00,
2013-03-07 07:28:00,9.5,6.3,30.29,South,187,2.4,3.7,86,0.00,,,0.00,CWS Microserver 1.4,2013-03-07 13:28:00,
2013-03-07 07:38:00,9.5,6.1,30.29,South,187,2.4,2.4,85,0.00,,,0.00,CWS Microserver 1.4,2013-03-07 13:38:00,
2013-03-07 07:43:00,9.5,6.2,30.28,South,187,2.4,2.4,86,0.00,,,0.00,CWS Microserver 1.4,2013-03-07 13:43:00,
2013-03-07 07:48:00,9.9,6.6,30.29,South,187,2.4,2.4,86,0.00,,,0.00,CWS Microserver 1.4,2013-03-07 13:48:00,
2013-03-07 07:53:00,10.3,7.1,30.28,South,187,2.4,2.4,86,0.00,,,0.00,CWS Microserver 1.4,2013-03-07 13:53:00,
2013-03-07 08:08:00,10.8,7.5,30.29,South,187,2.4,2.4,86,0.00,,,0.00,CWS Microserver 1.4,2013-03-07 14:08:00,
2013-03-07 08:13:00,11.0,7.7,30.29,South,187,2.4,2.4,86,0.00,,,0.00,CWS Microserver 1.4,2013-03-07 14:13:00,
2013-03-07 08:18:00,11.2,7.9,30.29,South,187,2.4,2.4,86,0.00,,,0.00,CWS Microserver 1.4,2013-03-07 14:18:00,
2013-03-07 08:23:00,11.2,7.9,30.28,South,187,2.4,2.4,86,0.00,,,0.00,CWS Microserver 1.4,2013-03-07 14:23:00,
2013-03-07 08:33:00,12.1,8.9,30.27,South,187,2.4,2.4,86,0.00,,,0.00,CWS Microserver 1.4,2013-03-07 14:33:00,
2013-03-07 08:43:00,12.8,9.6,30.27,SW,214,3.4,3.6,86,0.00,,,0.00,CWS Microserver 1.4,2013-03-07 14:43:00,
2013-03-07 08:48:00,13.1,9.9,30.28,SW,214,3.4,3.6,86,0.00,,,0.00,CWS Microserver 1.4,2013-03-07 14:48:00,
2013-03-07 08:53:00,13.7,10.6,30.27,SSW,209,4.2,4.2,87,0.00,,,0.00,CWS Microserver 1.4,2013-03-07 14:53:00,
2013-03-07 09:03:00,14.6,11.4,30.27,SSW,209,4.2,4.2,87,0.00,,,0.00,CWS Microserver 1.4,2013-03-07 15:03:00,
2013-03-07 09:08:00,14.8,11.6,30.27,SSW,209,4.2,4.2,87,0.00,,,0.00,CWS Microserver 1.4,2013-03-07 15:08:00,
2013-03-07 09:13:00,15.1,12.0,30.27,SSW,209,4.2,4.2,87,0.00,,,0.00,CWS Microserver 1.4,2013-03-07 15:13:00,
2013-03-07 09:18:00,15.5,12.4,30.27,SSW,209,4.2,4.2,87,0.00,,,0.00,CWS Microserver 1.4,2013-03-07 15:18:00,
2013-03-07 09:23:00,15.7,12.5,30.27,SSW,209,4.2,4.2,87,0.00,,,0.00,CWS Microserver 1.4,2013-03-07 15:23:00,
2013-03-07 09:28:00,16.0,13.0,30.27,SSW,209,4.2,4.2,87,0.00,,,0.00,CWS Microserver 1.4,2013-03-07 15:28:00,
2013-03-07 09:33:00,16.4,13.3,30.27,SSW,209,4.2,4.2,87,0.00,,,0.00,CWS Microserver 1.4,2013-03-07 15:33:00,
2013-03-07 09:38:00,16.7,13.6,30.27,SSW,209,4.2,4.2,87,0.00,,,0.00,CWS Microserver 1.4,2013-03-07 15:38:00,
2013-03-07 09:48:00,17.1,14.0,30.27,South,176,11.5,18.9,87,0.00,,,0.00,CWS Microserver 1.4,2013-03-07 15:48:00,
2013-03-07 09:53:00,16.9,13.8,30.27,SSE,158,16.5,19.7,87,0.00,,,0.00,CWS Microserver 1.4,2013-03-07 15:53:00,
2013-03-07 09:58:00,17.3,14.2,30.27,SSE,166,16.1,19.7,87,0.00,,,0.00,CWS Microserver 1.4,2013-03-07 15:58:00,
2013-03-07 10:03:00,17.5,14.3,30.26,SSE,153,14.5,19.4,87,0.00,,,0.00,CWS Microserver 1.4,2013-03-07 16:03:00,
2013-03-07 10:08:00,17.6,14.4,30.27,SSE,159,17.7,19.4,87,0.00,,,0.00,CWS Microserver 1.4,2013-03-07 16:08:00,
2013-03-07 10:13:00,17.8,14.6,30.26,SSE,154,14.2,18.6,87,0.00,,,0.00,CWS Microserver 1.4,2013-03-07 16:13:00,
2013-03-07 10:18:00,18.0,14.9,30.27,SSE,161,13.6,20.7,87,0.00,,,0.00,CWS Microserver 1.4,2013-03-07 16:18:00,
2013-03-07 10:23:00,18.4,15.3,30.26,SSE,166,17.3,21.3,87,0.00,,,0.00,CWS Microserver 1.4,2013-03-07 16:23:00,
2013-03-07 10:28:00,18.7,15.6,30.26,SSE,157,17.3,21.3,87,0.00,,,0.00,CWS Microserver 1.4,2013-03-07 16:28:00,
2013-03-07 10:33:00,18.7,15.5,30.26,SSE,157,18.7,21.9,87,0.00,,,0.00,CWS Microserver 1.4,2013-03-07 16:33:00,
2013-03-07 10:38:00,19.3,16.4,30.26,SSE,155,12.4,21.9,88,0.00,,,0.00,CWS Microserver 1.4,2013-03-07 16:38:00,
2013-03-07 10:43:00,19.3,16.0,30.26,SSE,158,15.5,21.2,86,0.00,,,0.00,CWS Microserver 1.4,2013-03-07 16:43:00,
2013-03-07 10:48:00,19.4,16.0,30.26,SSE,158,16.5,20.2,86,0.00,,,0.00,CWS Microserver 1.4,2013-03-07 16:48:00,
2013-03-07 10:53:00,19.8,16.5,30.26,SSE,160,14.4,20.2,86,0.00,,,0.00,CWS Microserver 1.4,2013-03-07 16:53:00,
2013-03-07 10:58:00,19.8,16.5,30.27,SSE,154,8.9,20.4,86,0.00,,,0.00,CWS Microserver 1.4,2013-03-07 16:58:00,
2013-03-07 11:03:00,20.3,16.8,30.27,South,170,14.3,20.4,86,0.00,,,0.00,CWS Microserver 1.4,2013-03-07 17:03:00,
2013-03-07 11:13:00,20.9,17.3,30.26,SSE,151,15.1,18.9,85,0.00,,,0.00,CWS Microserver 1.4,2013-03-07 17:13:00,
2013-03-07 11:18:00,21.1,17.3,30.26,SSE,152,10.7,18.9,85,0.00,,,0.00,CWS Microserver 1.4,2013-03-07 17:18:00,
2013-03-07 11:23:00,21.4,17.6,30.26,SSE,156,11.5,17.8,84,0.00,,,0.00,CWS Microserver 1.4,2013-03-07 17:23:00,
2013-03-07 11:28:00,21.6,17.4,30.26,SSE,161,12.5,17.8,83,0.00,,,0.00,CWS Microserver 1.4,2013-03-07 17:28:00,
2013-03-07 11:33:00,21.6,17.2,30.26,SSE,147,12.4,16.2,83,0.00,,,0.00,CWS Microserver 1.4,2013-03-07 17:33:00,
2013-03-07 11:38:00,21.8,17.6,30.26,SSE,148,12.4,16.8,83,0.00,,,0.00,CWS Microserver 1.4,2013-03-07 17:38:00,
2013-03-07 11:43:00,22.3,17.3,30.26,SSE,150,14.2,16.8,80,0.00,,,0.00,CWS Microserver 1.4,2013-03-07 17:43:00,
2013-03-07 11:48:00,22.9,18.2,30.26,SE,142,12.5,15.4,81,0.00,,,0.00,CWS Microserver 1.4,2013-03-07 17:48:00,
2013-03-07 11:58:00,23.8,17.6,30.26,SSE,147,12.9,15.0,76,0.00,,,0.00,CWS Microserver 1.4,2013-03-07 17:58:00,
2013-03-07 12:03:00,23.8,17.5,30.26,SSE,159,18.4,18.8,76,0.00,,,0.00,CWS Microserver 1.4,2013-03-07 18:03:00,
2013-03-07 12:08:00,24.3,17.9,30.26,SSE,152,13.7,18.8,76,0.00,,,0.00,CWS Microserver 1.4,2013-03-07 18:08:00,
2013-03-07 12:13:00,24.3,17.3,30.26,SSE,157,15.3,18.4,74,0.00,,,0.00,CWS Microserver 1.4,2013-03-07 18:13:00,
2013-03-07 12:18:00,24.8,18.3,30.26,SE,139,9.9,17.0,76,0.00,,,0.00,CWS Microserver 1.4,2013-03-07 18:18:00,
2013-03-07 12:23:00,25.4,18.8,30.25,ESE,114,3.7,17.0,75,0.00,,,0.00,CWS Microserver 1.4,2013-03-07 18:23:00,
2013-03-07 12:28:00,25.4,18.2,30.26,SE,139,6.9,15.5,73,0.00,,,0.00,CWS Microserver 1.4,2013-03-07 18:28:00,
2013-03-07 12:33:00,25.6,18.8,30.26,SE,131,8.0,16.2,75,0.00,,,0.00,CWS Microserver 1.4,2013-03-07 18:33:00,
2013-03-07 12:38:00,25.6,18.0,30.25,SE,136,8.9,16.5,72,0.00,,,0.00,CWS Microserver 1.4,2013-03-07 18:38:00,
2013-03-07 12:48:00,25.6,18.0,30.25,ESE,119,10.4,16.5,72,0.00,,,0.00,CWS Microserver 1.4,2013-03-07 18:48:00,
2013-03-07 12:53:00,25.6,17.9,30.24,SE,132,12.2,17.8,72,0.00,,,0.00,CWS Microserver 1.4,2013-03-07 18:53:00,
2013-03-07 12:58:00,25.4,18.1,30.24,ESE,112,8.5,18.2,73,0.00,,,0.00,CWS Microserver 1.4,2013-03-07 18:58:00,
2013-03-07 13:03:00,25.0,17.9,30.24,SE,129,12.7,18.2,74,0.00,,,0.00,CWS Microserver 1.4,2013-03-07 19:03:00,
2013-03-07 13:08:00,25.6,18.0,30.24,SE,144,12.4,18.7,72,0.00,,,0.00,CWS Microserver 1.4,2013-03-07 19:08:00,
2013-03-07 13:18:00,25.6,18.1,30.23,ESE,118,9.2,17.8,73,0.00,,,0.00,CWS Microserver 1.4,2013-03-07 19:18:00,
2013-03-07 13:28:00,25.9,18.9,30.22,ESE,122,14.3,18.6,74,0.00,,,0.00,CWS Microserver 1.4,2013-03-07 19:28:00,
2013-03-07 13:33:00,25.4,18.6,30.22,ESE,106,4.9,17.9,75,0.00,,,0.00,CWS Microserver 1.4,2013-03-07 19:33:00,
2013-03-07 13:38:00,25.6,19.0,30.23,SE,127,6.3,15.4,75,0.00,,,0.00,CWS Microserver 1.4,2013-03-07 19:38:00,
2013-03-07 13:43:00,26.5,18.5,30.23,SE,142,10.9,15.3,71,0.00,,,0.00,CWS Microserver 1.4,2013-03-07 19:43:00,
2013-03-07 13:48:00,25.9,18.2,30.22,ESE,120,13.8,16.7,72,0.00,,,0.00,CWS Microserver 1.4,2013-03-07 19:48:00,
2013-03-07 13:53:00,26.3,18.5,30.22,SE,144,8.9,17.4,72,0.00,,,0.00,CWS Microserver 1.4,2013-03-07 19:53:00,
2013-03-07 13:58:00,26.5,18.7,30.22,SE,145,14.0,17.9,71,0.00,,,0.00,CWS Microserver 1.4,2013-03-07 19:58:00,
2013-03-07 14:03:00,26.3,18.0,30.21,SE,145,13.6,17.9,70,0.00,,,0.00,CWS Microserver 1.4,2013-03-07 20:03:00,
2013-03-07 14:13:00,26.3,18.4,30.22,SE,137,13.3,17.4,71,0.00,,,0.00,CWS Microserver 1.4,2013-03-07 20:13:00,
2013-03-07 14:18:00,26.1,18.5,30.21,SSE,150,12.7,17.7,72,0.00,,,0.00,CWS Microserver 1.4,2013-03-07 20:18:00,
2013-03-07 14:23:00,26.3,18.4,30.21,SE,136,17.7,18.1,71,0.00,,,0.00,CWS Microserver 1.4,2013-03-07 20:23:00,
2013-03-07 14:28:00,26.1,18.6,30.21,SE,143,12.3,20.0,73,0.00,,,0.00,CWS Microserver 1.4,2013-03-07 20:28:00,
2013-03-07 14:33:00,25.9,19.2,30.21,ESE,120,9.8,20.0,75,0.00,,,0.00,CWS Microserver 1.4,2013-03-07 20:33:00,
2013-03-07 14:38:00,25.6,19.0,30.21,SE,124,15.3,20.2,75,0.00,,,0.00,CWS Microserver 1.4,2013-03-07 20:38:00,
2013-03-07 14:43:00,25.7,19.1,30.21,ESE,119,12.1,20.2,75,0.00,,,0.00,CWS Microserver 1.4,2013-03-07 20:43:00,
2013-03-07 14:48:00,25.6,19.4,30.21,SE,132,15.3,20.7,77,0.00,,,0.00,CWS Microserver 1.4,2013-03-07 20:48:00,
2013-03-07 14:53:00,25.6,19.1,30.21,ESE,117,17.0,21.6,76,0.00,,,0.00,CWS Microserver 1.4,2013-03-07 20:53:00,
2013-03-07 15:03:00,26.1,20.3,30.20,ESE,119,11.4,19.8,78,0.00,,,0.00,CWS Microserver 1.4,2013-03-07 21:03:00,
2013-03-07 15:08:00,26.1,19.3,30.20,ESE,119,16.2,18.9,75,0.00,,,0.00,CWS Microserver 1.4,2013-03-07 21:08:00,
2013-03-07 15:13:00,26.5,19.7,30.20,ESE,120,15.5,19.7,75,0.00,,,0.00,CWS Microserver 1.4,2013-03-07 21:13:00,
2013-03-07 15:18:00,26.5,19.3,30.20,SE,128,11.0,19.7,73,0.00,,,0.00,CWS Microserver 1.4,2013-03-07 21:18:00,
2013-03-07 15:28:00,26.6,19.8,30.20,SE,127,14.0,20.2,75,0.00,,,0.00,CWS Microserver 1.4,2013-03-07 21:28:00,
2013-03-07 15:33:00,26.6,18.7,30.20,SE,134,12.8,21.6,71,0.00,,,0.00,CWS Microserver 1.4,2013-03-07 21:33:00,
2013-03-07 15:38:00,26.6,19.3,30.20,SE,139,13.1,21.6,73,0.00,,,0.00,CWS Microserver 1.4,2013-03-07 21:38:00,
2013-03-07 15:43:00,26.5,20.0,30.20,SE,127,14.8,20.4,76,0.00,,,0.00,CWS Microserver 1.4,2013-03-07 21:43:00,
2013-03-07 15:48:00,26.3,19.6,30.20,SE,127,17.2,22.5,75,0.00,,,0.00,CWS Microserver 1.4,2013-03-07 21:48:00,
2013-03-07 15:53:00,26.3,19.5,30.20,ESE,119,14.4,22.5,75,0.00,,,0.00,CWS Microserver 1.4,2013-03-07 21:53:00,
2013-03-07 15:58:00,26.5,19.9,30.20,ESE,117,16.3,21.5,75,0.00,,,0.00,CWS Microserver 1.4,2013-03-07 21:58:00,
2013-03-07 16:03:00,26.3,19.7,30.20,ESE,120,16.1,20.2,75,0.00,,,0.00,CWS Microserver 1.4,2013-03-07 22:03:00,
2013-03-07 16:08:00,26.1,19.7,30.20,ESE,122,15.5,19.6,76,0.00,,,0.00,CWS Microserver 1.4,2013-03-07 22:08:00,
2013-03-07 16:13:00,25.9,19.6,30.20,SE,126,15.2,22.1,76,0.00,,,0.00,CWS Microserver 1.4,2013-03-07 22:13:00,
2013-03-07 16:18:00,25.9,19.3,30.20,SE,130,15.5,22.1,75,0.00,,,0.00,CWS Microserver 1.4,2013-03-07 22:18:00,
2013-03-07 16:23:00,25.7,19.2,30.20,SE,127,14.9,19.5,76,0.00,,,0.00,CWS Microserver 1.4,2013-03-07 22:23:00,
2013-03-07 16:28:00,25.6,19.4,30.20,ESE,118,13.6,21.0,77,0.00,,,0.00,CWS Microserver 1.4,2013-03-07 22:28:00,
2013-03-07 16:33:00,25.4,19.3,30.20,SE,136,14.0,21.0,77,0.00,,,0.00,CWS Microserver 1.4,2013-03-07 22:33:00,
2013-03-07 16:38:00,25.2,19.2,30.20,SE,125,14.5,20.6,77,0.00,,,0.00,CWS Microserver 1.4,2013-03-07 22:38:00,
2013-03-07 16:43:00,25.0,19.2,30.20,SE,129,9.7,20.6,78,0.00,,,0.00,CWS Microserver 1.4,2013-03-07 22:43:00,
2013-03-07 16:48:00,25.0,19.2,30.19,SE,130,11.1,21.0,78,0.00,,,0.00,CWS Microserver 1.4,2013-03-07 22:48:00,
2013-03-07 16:53:00,24.8,19.0,30.20,SE,126,14.8,21.0,78,0.00,,,0.00,CWS Microserver 1.4,2013-03-07 22:53:00,
2013-03-07 16:58:00,24.8,18.9,30.19,ESE,118,16.7,19.0,77,0.00,,,0.00,CWS Microserver 1.4,2013-03-07 22:58:00,
2013-03-07 17:03:00,24.8,18.9,30.19,SE,139,15.6,19.0,78,0.00,,,0.00,CWS Microserver 1.4,2013-03-07 23:03:00,
2013-03-07 17:08:00,24.7,19.1,30.19,SE,127,14.6,18.8,78,0.00,,,0.00,CWS Microserver 1.4,2013-03-07 23:08:00,
2013-03-07 17:13:00,24.5,19.0,30.19,SE,135,11.1,19.9,79,0.00,,,0.00,CWS Microserver 1.4,2013-03-07 23:13:00,
2013-03-07 17:18:00,24.3,18.9,30.19,SE,127,10.9,19.9,79,0.00,,,0.00,CWS Microserver 1.4,2013-03-07 23:18:00,
2013-03-07 17:23:00,24.3,18.8,30.19,SE,128,8.0,17.3,79,0.00,,,0.00,CWS Microserver 1.4,2013-03-07 23:23:00,
2013-03-07 17:28:00,24.5,18.8,30.19,SE,125,14.0,17.6,78,0.00,,,0.00,CWS Microserver 1.4,2013-03-07 23:28:00,
2013-03-07 17:33:00,24.3,18.7,30.19,ESE,121,12.8,17.6,78,0.00,,,0.00,CWS Microserver 1.4,2013-03-07 23:33:00,
2013-03-07 17:38:00,24.5,18.2,30.18,SE,134,17.9,18.6,76,0.00,,,0.00,CWS Microserver 1.4,2013-03-07 23:38:00,
2013-03-07 17:43:00,24.3,18.1,30.19,SE,138,11.0,18.6,76,0.00,,,0.00,CWS Microserver 1.4,2013-03-07 23:43:00,
2013-03-07 17:48:00,24.1,18.2,30.19,SE,138,15.8,18.1,77,0.00,,,0.00,CWS Microserver 1.4,2013-03-07 23:48:00,
2013-03-07 17:53:00,24.1,18.4,30.18,SSE,147,11.9,16.7,78,0.00,,,0.00,CWS Microserver 1.4,2013-03-07 23:53:00,
2013-03-07 17:58:00,23.9,18.0,30.18,SE,142,14.7,18.2,78,0.00,,,0.00,CWS Microserver 1.4,2013-03-07 23:58:00,
2013-03-07 18:03:00,23.9,18.0,30.19,SSE,150,11.9,18.2,77,0.00,,,0.00,CWS Microserver 1.4,2013-03-08 00:03:00,
2013-03-07 18:08:00,23.9,17.9,30.19,ESE,123,11.6,20.2,77,0.00,,,0.00,CWS Microserver 1.4,2013-03-08 00:08:00,
2013-03-07 18:13:00,23.9,18.0,30.19,SE,143,13.0,20.9,77,0.00,,,0.00,CWS Microserver 1.4,2013-03-08 00:13:00,
2013-03-07 18:18:00,23.8,18.1,30.19,SSE,149,15.5,20.9,78,0.00,,,0.00,CWS Microserver 1.4,2013-03-08 00:18:00,
2013-03-07 18:23:00,23.8,18.0,30.19,SE,145,16.5,20.3,78,0.00,,,0.00,CWS Microserver 1.4,2013-03-08 00:23:00,
2013-03-07 18:28:00,23.4,17.8,30.19,SSE,154,12.3,20.3,78,0.00,,,0.00,CWS Microserver 1.4,2013-03-08 00:28:00,
2013-03-07 18:33:00,23.2,17.8,30.19,SE,140,16.2,20.3,79,0.00,,,0.00,CWS Microserver 1.4,2013-03-08 00:33:00,
2013-03-07 18:38:00,23.0,17.8,30.19,SE,140,13.8,20.1,80,0.00,,,0.00,CWS Microserver 1.4,2013-03-08 00:38:00,
2013-03-07 18:43:00,22.9,17.7,30.19,SE,146,13.9,20.0,80,0.00,,,0.00,CWS Microserver 1.4,2013-03-08 00:43:00,
2013-03-07 18:48:00,22.9,17.8,30.19,SE,138,14.9,19.9,80,0.00,,,0.00,CWS Microserver 1.4,2013-03-08 00:48:00,
2013-03-07 18:53:00,22.7,17.6,30.19,SE,139,12.3,19.9,80,0.00,,,0.00,CWS Microserver 1.4,2013-03-08 00:53:00,
2013-03-07 18:58:00,22.7,17.6,30.19,SSE,150,13.1,17.2,80,0.00,,,0.00,CWS Microserver 1.4,2013-03-08 00:58:00,
2013-03-07 19:03:00,22.7,17.6,30.19,SE,142,20.0,20.9,80,0.00,,,0.00,CWS Microserver 1.4,2013-03-08 01:03:00,
2013-03-07 19:08:00,22.5,17.5,30.19,SE,136,10.7,20.9,80,0.00,,,0.00,CWS Microserver 1.4,2013-03-08 01:08:00,
2013-03-07 19:13:00,22.5,17.5,30.19,SE,138,14.6,20.7,80,0.00,,,0.00,CWS Microserver 1.4,2013-03-08 01:13:00,
2013-03-07 19:18:00,22.3,17.4,30.19,SE,141,12.7,20.0,81,0.00,,,0.00,CWS Microserver 1.4,2013-03-08 01:18:00,
2013-03-07 19:23:00,22.3,17.4,30.19,SE,145,16.6,21.2,81,0.00,,,0.00,CWS Microserver 1.4,2013-03-08 01:23:00,
2013-03-07 19:28:00,22.1,17.2,30.19,SE,143,12.9,21.2,81,0.00,,,0.00,CWS Microserver 1.4,2013-03-08 01:28:00,
2013-03-07 19:33:00,22.0,17.2,30.19,SE,138,14.9,19.6,81,0.00,,,0.00,CWS Microserver 1.4,2013-03-08 01:33:00,
2013-03-07 19:38:00,22.0,17.2,30.19,SE,145,12.0,19.6,81,0.00,,,0.00,CWS Microserver 1.4,2013-03-08 01:38:00,
2013-03-07 19:43:00,21.8,17.0,30.19,SE,142,15.9,18.7,81,0.00,,,0.00,CWS Microserver 1.4,2013-03-08 01:43:00,
2013-03-07 19:48:00,21.8,17.0,30.19,SE,145,16.9,19.3,81,0.00,,,0.00,CWS Microserver 1.4,2013-03-08 01:48:00,
2013-03-07 19:53:00,21.8,16.8,30.20,SSE,147,13.8,20.5,80,0.00,,,0.00,CWS Microserver 1.4,2013-03-08 01:53:00,
2013-03-07 19:58:00,21.8,16.7,30.20,SSE,150,15.5,20.5,80,0.00,,,0.00,CWS Microserver 1.4,2013-03-08 01:58:00,
2013-03-07 20:03:00,21.6,16.6,30.20,SSE,152,14.4,19.3,80,0.00,,,0.00,CWS Microserver 1.4,2013-03-08 02:03:00,
2013-03-07 20:08:00,21.4,16.3,30.21,SSE,160,16.7,20.1,80,0.00,,,0.00,CWS Microserver 1.4,2013-03-08 02:08:00,
2013-03-07 20:13:00,21.6,16.4,30.21,SSE,153,13.8,22.9,80,0.00,,,0.00,CWS Microserver 1.4,2013-03-08 02:13:00,
2013-03-07 20:18:00,21.4,16.2,30.20,SE,146,14.9,22.9,80,0.00,,,0.00,CWS Microserver 1.4,2013-03-08 02:18:00,
2013-03-07 20:23:00,21.2,16.1,30.20,SSE,154,15.2,20.3,80,0.00,,,0.00,CWS Microserver 1.4,2013-03-08 02:23:00,
2013-03-07 20:28:00,21.1,16.1,30.20,SSE,162,14.8,20.3,80,0.00,,,0.00,CWS Microserver 1.4,2013-03-08 02:28:00,
2013-03-07 20:33:00,20.9,15.9,30.21,SSE,163,15.9,20.0,80,0.00,,,0.00,CWS Microserver 1.4,2013-03-08 02:33:00,
2013-03-07 20:38:00,21.1,16.2,30.21,South,183,9.0,18.1,81,0.00,,,0.00,CWS Microserver 1.4,2013-03-08 02:38:00,
2013-03-07 20:43:00,20.9,16.1,30.22,South,180,14.0,17.8,81,0.00,,,0.00,CWS Microserver 1.4,2013-03-08 02:43:00,
2013-03-07 20:48:00,20.7,15.9,30.22,South,171,11.1,17.4,81,0.00,,,0.00,CWS Microserver 1.4,2013-03-08 02:48:00,
2013-03-07 20:53:00,20.7,16.0,30.22,SSE,167,9.2,15.2,81,0.00,,,0.00,CWS Microserver 1.4,2013-03-08 02:53:00,
2013-03-07 20:58:00,20.3,15.7,30.22,SSE,163,7.7,14.2,82,0.00,,,0.00,CWS Microserver 1.4,2013-03-08 02:58:00,
2013-03-07 21:03:00,20.5,16.0,30.22,South,176,12.3,16.4,82,0.00,,,0.00,CWS Microserver 1.4,2013-03-08 03:03:00,
2013-03-07 21:08:00,20.5,16.1,30.23,South,185,10.5,16.4,82,0.00,,,0.00,CWS Microserver 1.4,2013-03-08 03:08:00,
2013-03-07 21:13:00,20.3,15.9,30.22,SSE,160,10.3,15.4,82,0.00,,,0.00,CWS Microserver 1.4,2013-03-08 03:13:00,
2013-03-07 21:18:00,20.5,16.1,30.22,SSE,160,13.0,21.5,82,0.00,,,0.00,CWS Microserver 1.4,2013-03-08 03:18:00,
2013-03-07 21:23:00,20.2,15.8,30.22,SSE,157,14.7,21.5,82,0.00,,,0.00,CWS Microserver 1.4,2013-03-08 03:23:00,
2013-03-07 21:28:00,19.8,15.5,30.22,SSE,164,13.7,18.5,83,0.00,,,0.00,CWS Microserver 1.4,2013-03-08 03:28:00,
2013-03-07 21:33:00,19.8,15.7,30.21,SSE,163,18.7,19.7,83,0.00,,,0.00,CWS Microserver 1.4,2013-03-08 03:33:00,
2013-03-07 21:38:00,19.8,15.6,30.21,SSE,160,13.9,19.7,83,0.00,,,0.00,CWS Microserver 1.4,2013-03-08 03:38:00,
2013-03-07 21:43:00,19.8,15.6,30.21,SSE,160,14.9,19.1,83,0.00,,,0.00,CWS Microserver 1.4,2013-03-08 03:43:00,
2013-03-07 21:48:00,19.8,15.7,30.22,SSE,159,15.1,19.1,83,0.00,,,0.00,CWS Microserver 1.4,2013-03-08 03:48:00,
2013-03-07 21:53:00,19.6,15.4,30.22,SSE,157,13.2,19.1,83,0.00,,,0.00,CWS Microserver 1.4,2013-03-08 03:53:00,
2013-03-07 21:58:00,19.4,15.4,30.22,SSE,163,14.5,18.3,84,0.00,,,0.00,CWS Microserver 1.4,2013-03-08 03:58:00,
2013-03-07 22:03:00,19.4,15.4,30.22,South,171,12.4,17.7,84,0.00,,,0.00,CWS Microserver 1.4,2013-03-08 04:03:00,
2013-03-07 22:08:00,19.3,15.3,30.22,SSE,155,12.5,17.7,84,0.00,,,0.00,CWS Microserver 1.4,2013-03-08 04:08:00,
2013-03-07 22:13:00,19.3,15.4,30.22,SSE,154,14.5,17.2,84,0.00,,,0.00,CWS Microserver 1.4,2013-03-08 04:13:00,
2013-03-07 22:18:00,19.1,15.2,30.22,SSE,155,14.2,17.2,84,0.00,,,0.00,CWS Microserver 1.4,2013-03-08 04:18:00,
2013-03-07 22:23:00,18.9,15.1,30.23,SSE,158,14.4,15.2,85,0.00,,,0.00,CWS Microserver 1.4,2013-03-08 04:23:00,
2013-03-07 22:28:00,19.3,15.5,30.23,SSE,150,11.1,16.7,85,0.00,,,0.00,CWS Microserver 1.4,2013-03-08 04:28:00,
2013-03-07 22:33:00,19.1,15.3,30.22,SSE,159,11.7,16.7,84,0.00,,,0.00,CWS Microserver 1.4,2013-03-08 04:33:00,
2013-03-07 22:43:00,18.9,15.1,30.22,SSE,159,13.4,19.1,84,0.00,,,0.00,CWS Microserver 1.4,2013-03-08 04:43:00,
2013-03-07 22:53:00,19.1,15.3,30.22,SSE,161,15.2,18.1,84,0.00,,,0.00,CWS Microserver 1.4,2013-03-08 04:53:00,
2013-03-07 22:58:00,18.9,15.2,30.21,SSE,155,14.5,18.1,85,0.00,,,0.00,CWS Microserver 1.4,2013-03-08 04:58:00,
2013-03-07 23:03:00,18.7,15.0,30.21,SSE,163,11.3,17.1,85,0.00,,,0.00,CWS Microserver 1.4,2013-03-08 05:03:00,
2013-03-07 23:08:00,18.5,15.0,30.21,South,169,14.5,18.4,85,0.00,,,0.00,CWS Microserver 1.4,2013-03-08 05:08:00,
2013-03-07 23:13:00,18.7,15.1,30.22,South,173,13.0,18.4,85,0.00,,,0.00,CWS Microserver 1.4,2013-03-08 05:13:00,
2013-03-07 23:18:00,18.7,15.1,30.21,SSE,163,13.0,18.3,85,0.00,,,0.00,CWS Microserver 1.4,2013-03-08 05:18:00,
2013-03-07 23:23:00,18.5,14.9,30.21,SSE,163,12.8,18.3,85,0.00,,,0.00,CWS Microserver 1.4,2013-03-08 05:23:00,
2013-03-07 23:28:00,18.5,15.1,30.21,SSE,168,12.3,16.5,86,0.00,,,0.00,CWS Microserver 1.4,2013-03-08 05:28:00,
2013-03-07 23:33:00,18.5,14.9,30.21,SSE,162,11.2,16.5,85,0.00,,,0.00,CWS Microserver 1.4,2013-03-08 05:33:00,
2013-03-07 23:38:00,18.5,15.0,30.21,SSE,163,10.7,17.2,85,0.00,,,0.00,CWS Microserver 1.4,2013-03-08 05:38:00,
2013-03-07 23:43:00,18.7,15.2,30.22,SSE,166,13.1,17.7,85,0.00,,,0.00,CWS Microserver 1.4,2013-03-08 05:43:00,
2013-03-07 23:48:00,18.5,15.0,30.22,SSE,167,13.2,17.7,85,0.00,,,0.00,CWS Microserver 1.4,2013-03-08 05:48:00,
2013-03-07 23:53:00,18.5,15.1,30.22,South,174,10.9,16.4,86,0.00,,,0.00,CWS Microserver 1.4,2013-03-08 05:53:00,
2013-03-07 23:58:00,18.4,15.0,30.22,South,176,6.7,16.4,86,0.00,,,0.00,CWS Microserver 1.4,2013-03-08 05:58:00,